Time;durP1;ratioP1;P1;durP2;ratioP2;P2;SDS_P1;SDS_P2;PMS_P1;PMS_P2;Temp;Humidity;BMP_temperature;BMP_pressure;BME280_temperature;BME280_humidity;BME280_pressure;Samples;Min_cycle;Max_cycle;Signal;HPM_P1;HPM_P2
2022/11/16 00:01:22;;;;;;;0.70;0.70;;;;;;;-7.18;59.66;95819.03;6194740;28;20134;-63
2022/11/16 00:04:26;;;;;;;1.45;1.15;;;;;;;-7.30;60.60;95823.44;6196358;28;20049;-63
2022/11/16 00:07:27;;;;;;;2.13;1.30;;;;;;;-7.29;60.80;95826.81;6192041;28;20516;-62
2022/11/16 00:10:35;;;;;;;1.55;1.08;;;;;;;-7.30;60.75;95832.81;6195728;28;20421;-63
2022/11/16 00:13:37;;;;;;;1.23;1.13;;;;;;;-7.26;60.99;95832.72;6191571;28;20055;-63
2022/11/16 00:16:39;;;;;;;1.92;1.20;;;;;;;-7.27;60.63;95825.94;6194114;28;20057;-63
2022/11/16 00:19:43;;;;;;;1.45;1.35;;;;;;;-7.37;60.99;95824.34;6195164;28;21160;-65
2022/11/16 00:22:44;;;;;;;1.65;1.10;;;;;;;-7.20;61.42;95830.97;6191850;28;20513;-63
2022/11/16 00:25:46;;;;;;;1.00;0.80;;;;;;;-7.12;60.88;95836.84;6193715;28;20053;-63
2022/11/16 00:28:53;;;;;;;1.20;1.10;;;;;;;-7.05;61.21;95846.97;6195382;28;20086;-64
2022/11/16 00:31:54;;;;;;;1.67;1.38;;;;;;;-6.98;61.00;95847.72;6191692;28;20054;-62
2022/11/16 00:34:55;;;;;;;4.05;1.65;;;;;;;-6.95;60.88;95849.41;6193316;28;20709;-64
2022/11/16 00:37:57;;;;;;;2.42;1.70;;;;;;;-6.87;60.95;95851.00;6192997;28;20263;-62
2022/11/16 00:41:00;;;;;;;2.50;1.42;;;;;;;-6.81;60.46;95852.63;6192691;28;20057;-63
2022/11/16 00:44:02;;;;;;;3.38;1.58;;;;;;;-6.82;60.81;95853.47;6195654;28;20050;-62
2022/11/16 00:47:03;;;;;;;1.75;1.30;;;;;;;-6.94;60.84;95858.75;6192522;28;20034;-63
2022/11/16 00:50:05;;;;;;;1.30;1.10;;;;;;;-7.04;60.90;95855.50;6193649;28;20054;-63
2022/11/16 00:53:17;;;;;;;1.55;1.23;;;;;;;-7.23;61.09;95868.47;6193733;28;20050;-62
2022/11/16 00:56:21;;;;;;;1.63;1.08;;;;;;;-7.30;60.61;95866.88;6190480;28;20038;-63
2022/11/16 00:59:22;;;;;;;3.63;1.90;;;;;;;-7.40;61.43;95865.28;6196580;28;20046;-63
2022/11/16 01:02:23;;;;;;;3.20;2.00;;;;;;;-7.45;61.40;95875.53;6197094;28;20062;-64
2022/11/16 01:05:28;;;;;;;6.22;2.40;;;;;;;-7.59;60.98;95869.72;6195498;28;20042;-64
2022/11/16 01:08:30;;;;;;;3.80;1.92;;;;;;;-7.63;61.21;95877.44;6195635;28;20041;-64
2022/11/16 01:14:51;;;;;;;1.75;1.65;;;;;;;-7.71;61.48;95883.47;6195593;28;20068;-64
2022/11/16 01:17:56;;;;;;;2.90;1.50;;;;;;;-7.73;61.11;95890.31;6195610;28;20062;-64
2022/11/16 01:20:57;;;;;;;2.30;1.20;;;;;;;-7.78;61.30;95889.50;6182303;28;20414;-64
2022/11/16 01:23:58;;;;;;;1.33;1.23;;;;;;;-7.92;60.91;95876.03;6195287;28;20153;-64
2022/11/16 01:27:00;;;;;;;3.28;0.88;;;;;;;-7.88;61.35;95902.38;6197911;28;20065;-63
2022/11/16 01:30:01;;;;;;;2.67;2.08;;;;;;;-7.84;61.12;95899.78;6198386;28;20062;-63
2022/11/16 01:33:02;;;;;;;2.90;1.50;;;;;;;-8.03;61.68;95885.47;6194857;28;20053;-64
2022/11/16 01:36:13;;;;;;;2.08;1.35;;;;;;;-8.00;61.48;95903.31;6198643;28;20042;-62
2022/11/16 01:39:18;;;;;;;1.52;1.33;;;;;;;-7.91;61.00;95903.25;6193982;28;20069;-64
2022/11/16 01:42:22;;;;;;;9.80;1.90;;;;;;;-7.85;61.27;95908.28;6196794;28;20548;-64
2022/11/16 01:45:41;;;;;;;4.38;2.28;;;;;;;-7.89;61.17;95913.44;6195468;28;20054;-63
2022/11/16 01:48:45;;;;;;;4.55;2.08;;;;;;;-7.92;61.13;95916.88;6174784;28;20050;-63
2022/11/16 01:51:54;;;;;;;3.65;1.85;;;;;;;-7.77;61.07;95921.84;6190719;28;20069;-63
2022/11/16 01:54:55;;;;;;;2.75;1.83;;;;;;;-7.77;60.58;95928.66;6194191;28;20053;-63
2022/11/16 01:57:57;;;;;;;4.80;2.15;;;;;;;-7.77;60.88;95936.31;6195760;28;20421;-64
2022/11/16 02:01:01;;;;;;;2.08;1.70;;;;;;;-7.72;60.89;95932.88;6194723;28;20046;-63
2022/11/16 02:04:02;;;;;;;2.40;1.63;;;;;;;-7.65;60.60;95932.81;6175331;28;20129;-63
2022/11/16 02:07:25;;;;;;;1.58;1.23;;;;;;;-7.61;60.90;95942.13;6193301;28;20145;-64
2022/11/16 02:11:04;;;;;;;2.42;1.27;;;;;;;-7.73;60.57;95933.75;6195536;28;20054;-64
2022/11/16 02:14:31;;;;;;;2.70;1.63;;;;;;;-7.85;60.36;95941.47;6195684;28;20050;-64
2022/11/16 02:17:44;;;;;;;1.42;1.17;;;;;;;-7.97;61.53;95954.34;6196920;28;20054;-65
2022/11/16 02:21:01;;;;;;;3.33;1.75;;;;;;;-8.07;61.20;95945.06;6188251;28;20100;-64
2022/11/16 02:24:25;;;;;;;1.58;1.30;;;;;;;-8.07;61.82;95952.72;6179873;28;20053;-64
2022/11/16 02:27:56;;;;;;;1.98;1.50;;;;;;;-8.00;62.04;95967.97;6194657;28;20090;-64
2022/11/16 02:31:09;;;;;;;2.47;1.70;;;;;;;-8.02;61.95;95967.13;6197334;28;20046;-64
2022/11/16 02:34:14;;;;;;;2.05;1.35;;;;;;;-7.99;61.96;95976.47;6193308;28;20050;-63
2022/11/16 02:37:21;;;;;;;1.35;1.23;;;;;;;-7.98;61.63;95975.63;6191846;28;20038;-64
2022/11/16 02:40:26;;;;;;;4.28;1.67;;;;;;;-8.02;61.63;95977.34;6194782;28;20052;-63
2022/11/16 02:43:35;;;;;;;3.63;1.65;;;;;;;-8.05;61.67;95981.63;6193015;28;20054;-64
2022/11/16 02:46:41;;;;;;;1.77;1.65;;;;;;;-8.05;61.83;95976.53;6193968;28;20529;-63
2022/11/16 02:49:51;;;;;;;2.97;1.67;;;;;;;-8.08;61.37;95987.59;6188405;28;20046;-64
2022/11/16 02:52:55;;;;;;;3.72;2.13;;;;;;;-8.10;61.64;95989.31;6190297;28;20062;-63
2022/11/16 02:55:59;;;;;;;5.07;2.03;;;;;;;-8.05;61.68;95994.41;6194752;28;20096;-63
2022/11/16 02:59:03;;;;;;;2.78;1.90;;;;;;;-8.01;61.22;95998.63;6193934;28;20046;-63
2022/11/16 03:02:26;;;;;;;3.13;2.17;;;;;;;-8.00;61.31;95992.66;6194902;28;20051;-64
2022/11/16 03:05:43;;;;;;;3.42;1.90;;;;;;;-8.04;61.17;95998.63;6188844;28;20042;-63
2022/11/16 03:08:56;;;;;;;4.72;2.38;;;;;;;-8.03;61.51;96013.97;6192769;28;20132;-64
2022/11/16 03:12:01;;;;;;;4.05;2.35;;;;;;;-7.95;61.29;96009.66;6196362;28;20101;-64
2022/11/16 03:15:11;;;;;;;3.58;1.85;;;;;;;-7.97;61.38;96010.53;6185054;28;20046;-64
2022/11/16 03:18:15;;;;;;;2.35;2.15;;;;;;;-8.01;61.67;96003.72;6173894;28;20492;-63
2022/11/16 03:21:28;;;;;;;3.17;2.22;;;;;;;-8.03;61.50;96021.63;6188586;28;20051;-64
2022/11/16 03:24:35;;;;;;;3.40;2.42;;;;;;;-8.13;62.22;96015.69;6194236;28;20042;-64
2022/11/16 03:27:37;;;;;;;3.88;2.20;;;;;;;-8.07;62.19;96024.19;6190774;28;20034;-64
2022/11/16 03:31:05;;;;;;;5.55;3.03;;;;;;;-8.00;62.58;96028.41;6194341;28;20030;-64
2022/11/16 03:34:15;;;;;;;6.25;2.90;;;;;;;-8.01;62.08;96030.13;6170143;28;20101;-64
2022/11/16 03:37:20;;;;;;;5.05;2.47;;;;;;;-8.05;62.26;96027.59;6190773;28;20039;-63
2022/11/16 03:40:28;;;;;;;6.35;3.15;;;;;;;-8.05;62.75;96035.25;6186867;28;20489;-64
2022/11/16 03:43:31;;;;;;;2.65;1.92;;;;;;;-8.05;62.34;96032.69;6193980;28;20468;-63
2022/11/16 03:46:32;;;;;;;3.95;3.03;;;;;;;-8.04;61.86;96044.59;6191376;28;20416;-63
2022/11/16 03:49:33;;;;;;;4.53;2.92;;;;;;;-7.95;61.44;96039.44;6187750;28;20045;-64
2022/11/16 03:52:35;;;;;;;4.60;2.95;;;;;;;-7.98;61.75;96045.41;6195245;28;20404;-63
2022/11/16 03:55:37;;;;;;;3.20;2.45;;;;;;;-7.90;61.29;96053.00;6195144;28;20552;-65
2022/11/16 03:58:42;;;;;;;5.55;2.53;;;;;;;-7.84;60.58;96057.22;6202071;28;20397;-64
2022/11/16 04:01:45;;;;;;;5.70;2.35;;;;;;;-7.83;60.48;96049.56;6193337;28;20046;-63
2022/11/16 04:25:17;;;;;;;2.45;1.73;;;;;;;-7.72;59.29;96098.88;6190979;28;20042;-64
2022/11/16 04:28:26;;;;;;;5.78;2.45;;;;;;;-7.65;59.12;96099.69;6193846;28;20413;-63
2022/11/16 04:38:09;;;;;;;3.72;1.60;;;;;;;-7.49;59.08;96105.56;6199084;28;20046;-64
2022/11/16 04:42:13;;;;;;;1.55;1.45;;;;;;;-7.51;59.35;96105.53;6197492;28;20060;-63
2022/11/16 04:47:55;;;;;;;5.60;2.15;;;;;;;-7.27;59.05;96116.47;6198206;28;20569;-63
2022/11/16 04:50:56;;;;;;;6.13;2.70;;;;;;;-7.29;59.05;96120.75;6182033;28;20133;-64
2022/11/16 04:54:03;;;;;;;3.55;2.28;;;;;;;-7.28;59.05;96115.59;6190696;28;20046;-64
2022/11/16 04:57:07;;;;;;;4.72;2.30;;;;;;;-7.33;58.55;96119.94;6197586;28;20058;-64
2022/11/16 05:00:09;;;;;;;5.80;2.22;;;;;;;-7.35;59.21;96124.19;6195543;28;20053;-64
2022/11/16 05:03:13;;;;;;;2.78;1.50;;;;;;;-7.32;58.89;96129.28;6196163;28;20046;-64
2022/11/16 05:06:14;;;;;;;2.97;1.60;;;;;;;-7.26;58.34;96129.22;6198090;28;20062;-63
2022/11/16 05:09:16;;;;;;;1.75;1.60;;;;;;;-7.20;58.36;96128.34;6196052;28;20050;-64
2022/11/16 05:12:22;;;;;;;3.70;1.95;;;;;;;-7.21;58.75;96126.66;6195299;28;20035;-63
2022/11/16 05:15:24;;;;;;;3.40;1.88;;;;;;;-7.18;58.76;96131.75;6197819;28;20058;-65
2022/11/16 05:18:25;;;;;;;3.22;1.83;;;;;;;-7.04;58.26;96134.19;6197635;28;20054;-63
2022/11/16 05:21:29;;;;;;;6.43;2.78;;;;;;;-6.96;57.92;96131.53;6198929;28;20046;-64
2022/11/16 05:24:35;;;;;;;2.45;1.77;;;;;;;-6.91;58.34;96133.22;6197034;28;20531;-63
2022/11/16 05:27:36;;;;;;;6.32;2.55;;;;;;;-6.86;57.57;96133.19;6195233;28;20038;-63
2022/11/16 05:30:38;;;;;;;6.90;1.83;;;;;;;-6.83;57.60;96136.53;6191556;28;20038;-64
2022/11/16 05:33:39;;;;;;;4.88;2.63;;;;;;;-6.79;58.00;96145.91;6208565;28;20044;-63
2022/11/16 05:36:41;;;;;;;4.25;2.63;;;;;;;-6.67;57.37;96144.94;6197527;28;20184;-63
2022/11/16 05:39:43;;;;;;;4.45;2.55;;;;;;;-6.61;57.34;96151.72;6196202;28;20095;-63
2022/11/16 05:42:49;;;;;;;7.28;2.72;;;;;;;-6.38;57.27;96157.44;6192722;28;20050;-64
2022/11/16 05:45:50;;;;;;;5.95;2.75;;;;;;;-6.19;57.43;96154.72;6193200;28;20146;-63
2022/11/16 05:48:54;;;;;;;5.43;2.53;;;;;;;-5.96;56.86;96160.41;6193829;28;20034;-63
2022/11/16 05:51:55;;;;;;;2.55;1.90;;;;;;;-5.75;55.95;96166.09;6187435;28;20162;-64
2022/11/16 05:54:59;;;;;;;4.60;2.22;;;;;;;-5.66;55.52;96158.31;6187485;28;20049;-75
2022/11/16 05:58:00;;;;;;;2.75;1.58;;;;;;;-5.60;55.37;96165.91;6198119;28;20042;-74
2022/11/16 06:01:04;;;;;;;3.22;1.55;;;;;;;-5.57;55.58;96165.88;6193699;28;20092;-72
2022/11/16 06:04:08;;;;;;;2.75;1.90;;;;;;;-5.61;54.94;96171.91;6183164;28;20069;-66
2022/11/16 06:07:12;;;;;;;2.40;1.80;;;;;;;-5.67;55.29;96177.94;6183964;28;20047;-74
2022/11/16 06:10:16;;;;;;;2.42;1.48;;;;;;;-5.70;55.56;96172.88;6192575;28;20043;-71
2022/11/16 06:13:17;;;;;;;3.00;1.45;;;;;;;-5.67;55.54;96183.06;6194629;28;20060;-70
2022/11/16 06:16:22;;;;;;;3.63;1.83;;;;;;;-5.62;55.47;96185.59;6197478;28;20042;-72
2022/11/16 06:19:25;;;;;;;2.53;1.13;;;;;;;-5.42;53.98;96178.47;6195528;28;20521;-70
2022/11/16 06:22:26;;;;;;;5.30;1.75;;;;;;;-5.48;54.78;96186.25;6198013;28;20050;-71
2022/11/16 06:25:29;;;;;;;2.63;1.60;;;;;;;-5.35;54.61;96178.38;6194116;28;21935;-71
2022/11/16 06:28:31;;;;;;;2.20;1.15;;;;;;;-3.80;52.98;96186.09;6202013;28;20469;-65
2022/11/16 06:31:32;;;;;;;1.50;1.20;;;;;;;1.41;44.06;96190.53;6190176;28;20046;-65
2022/11/16 06:34:36;;;;;;;1.25;1.05;;;;;;;6.47;36.71;96191.59;6195132;28;20042;-65
2022/11/16 06:37:37;;;;;;;1.83;0.90;;;;;;;10.32;31.83;96198.19;6189969;28;20042;-65
2022/11/16 06:40:39;;;;;;;2.20;1.40;;;;;;;12.81;28.40;96205.66;6193053;28;20049;-64
2022/11/16 06:43:43;;;;;;;1.33;0.93;;;;;;;14.55;26.21;96215.13;6186666;28;20084;-64
2022/11/16 06:46:47;;;;;;;2.13;1.70;;;;;;;16.62;23.96;96205.16;6191590;28;20175;-64
2022/11/16 06:49:48;;;;;;;1.83;1.27;;;;;;;18.07;22.80;96212.50;6188282;28;20547;-63
2022/11/16 06:52:51;;;;;;;;;;;;;;;19.13;23.24;96212.59;6195115;28;20121;-64
2022/11/16 06:55:53;;;;;;;1.15;0.63;;;;;;;19.25;20.98;96213.94;6195801;28;19939;-64
2022/11/16 06:58:57;;;;;;;1.25;0.80;;;;;;;19.76;19.49;96208.31;6192316;28;20046;-64
2022/11/16 07:02:02;;;;;;;1.88;1.00;;;;;;;20.31;19.36;96209.19;6188380;28;20061;-64
2022/11/16 07:05:04;;;;;;;2.95;1.30;;;;;;;19.99;18.43;96208.38;6200484;28;20053;-64
2022/11/16 07:08:06;;;;;;;0.55;0.50;;;;;;;20.51;17.86;96213.06;6194128;28;20050;-64
2022/11/16 07:11:10;;;;;;;1.17;0.65;;;;;;;21.75;16.82;96222.53;6196266;28;20042;-63
2022/11/16 07:14:17;;;;;;;2.33;0.77;;;;;;;22.32;16.30;96207.59;6194359;28;20062;-64
2022/11/16 07:17:18;;;;;;;2.08;0.80;;;;;;;23.22;15.75;96208.06;6192241;28;20057;-64
2022/11/16 07:20:22;;;;;;;1.02;0.73;;;;;;;23.64;14.88;96217.03;6193959;28;20042;-65
2022/11/16 07:23:24;;;;;;;2.00;0.70;;;;;;;23.72;14.87;96217.75;6192545;28;20060;-64
2022/11/16 07:26:33;;;;;;;1.40;0.75;;;;;;;24.07;14.09;96215.00;6190807;28;20132;-64
2022/11/16 07:29:38;;;;;;;4.18;1.08;;;;;;;24.03;14.21;96215.59;6191206;28;20137;-64
2022/11/16 07:32:40;;;;;;;2.83;0.75;;;;;;;22.39;14.25;96207.66;6192729;28;20042;-65
2022/11/16 07:35:45;;;;;;;1.87;1.10;;;;;;;22.19;14.14;96219.00;6194351;28;20046;-64
2022/11/16 07:38:46;;;;;;;1.65;0.95;;;;;;;22.20;13.97;96225.19;6192084;28;20046;-64
2022/11/16 07:41:51;;;;;;;1.67;1.10;;;;;;;21.83;13.79;96235.00;6193565;28;20556;-64
2022/11/16 07:44:53;;;;;;;1.20;0.85;;;;;;;21.65;13.99;96231.84;6192084;28;20050;-64
2022/11/16 07:48:00;;;;;;;0.70;0.60;;;;;;;21.58;13.83;96225.59;6185514;28;20050;-64
2022/11/16 07:51:06;;;;;;;1.13;0.70;;;;;;;22.26;13.33;96231.66;6194860;28;20213;-64
2022/11/16 07:54:13;;;;;;;1.15;0.77;;;;;;;22.88;12.52;96235.63;6185765;28;20082;-64
2022/11/16 07:57:15;;;;;;;1.45;0.60;;;;;;;22.74;13.30;96232.78;6192284;28;20521;-63
2022/11/16 08:00:16;;;;;;;0.68;0.60;;;;;;;22.62;13.25;96239.69;6190311;28;20054;-65
2022/11/16 08:03:20;;;;;;;2.45;0.80;;;;;;;22.97;12.86;96242.53;6190829;28;20045;-64
2022/11/16 08:06:26;;;;;;;0.98;0.52;;;;;;;22.83;12.58;96237.00;6193311;28;20494;-64
2022/11/16 08:09:29;;;;;;;1.65;0.60;;;;;;;22.71;13.08;96243.91;6193278;28;20042;-64
2022/11/16 08:12:31;;;;;;;0.80;0.43;;;;;;;22.80;12.98;96248.13;6195914;28;20052;-64
2022/11/16 08:15:32;;;;;;;2.75;0.93;;;;;;;23.14;12.86;96248.47;6194489;28;20054;-67
2022/11/16 08:18:35;;;;;;;0.90;0.63;;;;;;;23.82;12.36;96251.47;6192751;28;20188;-66
2022/11/16 08:21:36;;;;;;;0.77;0.65;;;;;;;23.78;12.00;96245.66;6194875;28;20081;-67
2022/11/16 08:24:40;;;;;;;1.80;0.70;;;;;;;23.41;12.23;96254.88;6187848;28;20701;-67
2022/11/16 08:27:45;;;;;;;0.65;0.50;;;;;;;23.09;12.24;96259.75;6184748;28;20054;-68
2022/11/16 08:30:52;;;;;;;1.00;0.50;;;;;;;22.81;12.44;96260.50;6182266;28;20042;-68
2022/11/16 08:33:53;;;;;;;1.13;0.55;;;;;;;22.82;12.42;96256.81;6177889;28;20045;-71
2022/11/16 08:36:57;;;;;;;1.20;0.90;;;;;;;22.77;12.29;96253.88;6185588;28;20074;-72
2022/11/16 08:40:04;;;;;;;0.98;0.57;;;;;;;21.60;12.61;96255.66;6179957;28;20045;-72
2022/11/16 08:43:09;;;;;;;1.13;0.82;;;;;;;21.19;12.98;96259.53;6182028;28;20046;-72
2022/11/16 08:46:13;;;;;;;1.33;1.00;;;;;;;20.69;13.29;96258.25;6181434;28;20038;-72
2022/11/16 08:49:17;;;;;;;1.50;0.80;;;;;;;20.54;13.05;96260.84;6177473;28;20057;-71
2022/11/16 08:52:23;;;;;;;1.00;0.90;;;;;;;19.81;13.51;96269.19;6176019;28;20484;-72
2022/11/16 08:55:31;;;;;;;0.57;0.47;;;;;;;18.88;14.08;96274.94;6179911;28;20618;-72
2022/11/16 08:58:35;;;;;;;1.00;0.70;;;;;;;18.38;14.00;96282.81;6174976;28;20353;-73
2022/11/16 09:01:40;;;;;;;1.95;0.93;;;;;;;18.31;14.52;96287.09;6175550;28;20701;-74
2022/11/16 09:04:44;;;;;;;2.50;1.73;;;;;;;17.61;15.03;96281.97;6175929;28;20042;-72
2022/11/16 09:07:47;;;;;;;1.50;1.20;;;;;;;17.21;15.05;96283.38;6175663;28;20548;-71
2022/11/16 09:10:49;;;;;;;1.42;1.33;;;;;;;16.82;15.15;96288.22;6163368;28;20058;-72
2022/11/16 09:13:56;;;;;;;1.50;0.93;;;;;;;16.53;15.36;96286.56;6188365;28;20058;-70
2022/11/16 09:16:59;;;;;;;1.20;0.73;;;;;;;16.70;15.31;96294.69;6194992;28;20477;-69
2022/11/16 09:20:01;;;;;;;;;;;;;;;18.17;14.94;96296.59;6178434;28;20046;-72
2022/11/16 09:23:02;;;;;;;1.80;0.77;;;;;;;17.70;14.96;96293.50;6176069;28;21127;-72
2022/11/16 09:26:06;;;;;;;;;;;;;;;17.42;15.53;96296.31;6174487;28;20046;-71
2022/11/16 09:29:13;;;;;;;2.28;1.48;;;;;;;13.33;17.98;96306.06;6172037;28;19925;-72
2022/11/16 09:32:20;;;;;;;2.95;1.65;;;;;;;9.99;20.87;96292.63;6176512;28;20042;-72
2022/11/16 09:35:24;;;;;;;2.60;1.45;;;;;;;6.93;24.50;96296.88;6177982;28;20640;-74
2022/11/16 09:38:30;;;;;;;1.15;1.05;;;;;;;4.86;26.91;96305.69;6177509;28;20445;-73
2022/11/16 09:41:43;;;;;;;2.25;1.10;;;;;;;3.89;28.53;96303.59;6175385;28;20050;-73
2022/11/16 09:45:07;;;;;;;2.10;1.10;;;;;;;3.27;29.02;96305.56;6178417;28;20054;-72
2022/11/16 09:48:17;;;;;;;3.10;1.30;;;;;;;2.73;29.67;96307.91;6175721;28;20069;-70
2022/11/16 09:51:28;;;;;;;3.15;1.25;;;;;;;2.45;30.21;96310.84;6171966;28;20042;-70
2022/11/16 09:54:35;;;;;;;1.10;1.00;;;;;;;2.04;31.25;96297.81;6174952;28;20050;-73
2022/11/16 09:57:37;;;;;;;1.85;1.02;;;;;;;1.71;31.29;96328.50;6161840;28;20821;-73
2022/11/16 10:00:46;;;;;;;1.35;1.15;;;;;;;1.41;31.55;96314.97;6180652;28;20456;-75
2022/11/16 10:03:53;;;;;;;1.45;1.08;;;;;;;1.56;32.01;96332.53;6183603;28;20145;-73
2022/11/16 10:07:04;;;;;;;2.53;1.40;;;;;;;1.77;32.10;96331.72;6183449;28;20057;-73
2022/11/16 10:10:15;;;;;;;;;;;;;;;4.10;28.84;96336.38;6176699;28;20050;-74
2022/11/16 10:13:44;;;;;;;1.85;1.60;;;;;;;3.51;29.46;96345.22;6178281;28;20297;-72
2022/11/16 10:17:05;;;;;;;3.60;1.42;;;;;;;2.24;31.29;96341.97;6175151;28;20046;-72
2022/11/16 10:20:29;;;;;;;1.52;1.17;;;;;;;1.54;32.62;96355.94;6176775;28;20050;-73
2022/11/16 10:23:49;;;;;;;2.55;1.45;;;;;;;0.88;33.60;96360.91;6180474;28;20788;-73
2022/11/16 10:27:10;;;;;;;3.08;1.40;;;;;;;0.44;35.07;96363.25;6174568;28;21486;-72
2022/11/16 10:30:20;;;;;;;2.28;0.93;;;;;;;-0.04;35.64;96348.41;6171036;28;20113;-76
2022/11/16 10:33:34;;;;;;;1.90;1.30;;;;;;;-0.30;35.87;96358.72;6197439;28;20060;-78
2022/11/16 10:36:37;;;;;;;2.05;1.17;;;;;;;-0.20;36.28;96361.84;6214087;28;20038;-78
2022/11/16 10:39:51;;;;;;;1.15;0.80;;;;;;;-0.08;36.42;96357.16;6211893;28;20502;-78
2022/11/16 10:43:10;;;;;;;1.17;0.90;;;;;;;-0.18;35.84;96360.91;6212640;28;20117;-77
2022/11/16 10:46:49;;;;;;;0.90;0.70;;;;;;;-0.59;36.26;96363.00;6181184;28;20049;-80
2022/11/16 10:50:01;;;;;;;1.92;1.15;;;;;;;-1.01;37.98;96378.81;6182901;28;20045;-78
2022/11/16 10:53:05;;;;;;;2.00;1.30;;;;;;;-1.38;38.64;96374.63;6188932;28;21928;-79
2022/11/16 10:56:36;;;;;;;4.00;1.05;;;;;;;-1.45;39.07;96392.88;6192717;28;20218;-79
2022/11/16 10:59:43;;;;;;;0.98;0.80;;;;;;;-1.91;40.26;96400.00;6201385;28;20050;-79
2022/11/16 11:02:47;;;;;;;1.92;0.80;;;;;;;-1.95;40.19;96406.13;6190231;28;20130;-78
2022/11/16 11:05:54;;;;;;;2.38;0.95;;;;;;;-1.91;40.00;96394.84;6198691;28;20387;-79
2022/11/16 11:09:20;;;;;;;1.42;1.00;;;;;;;-1.82;39.99;96414.41;6188389;28;20042;-80
2022/11/16 11:12:38;;;;;;;3.58;0.80;;;;;;;-2.04;39.93;96393.44;6176278;28;20042;-78
2022/11/16 11:15:43;;;;;;;0.90;0.80;;;;;;;-2.03;40.17;96420.94;6170762;28;20042;-78
2022/11/16 11:18:50;;;;;;;1.63;0.80;;;;;;;-1.89;40.13;96415.47;6171831;28;20536;-78
2022/11/16 11:21:56;;;;;;;5.25;1.60;;;;;;;-2.04;40.54;96414.94;6173781;28;20046;-78
2022/11/16 11:25:02;;;;;;;2.70;1.35;;;;;;;-2.29;41.14;96429.25;6176386;28;20061;-78
2022/11/16 11:28:18;;;;;;;2.03;1.23;;;;;;;-2.70;42.06;96433.50;6166491;28;20053;-79
2022/11/16 11:31:31;;;;;;;2.55;0.88;;;;;;;-2.97;42.35;96434.91;6171293;28;20049;-66
2022/11/16 11:34:47;;;;;;;2.33;0.98;;;;;;;-3.00;42.85;96450.38;6171957;28;20049;-68
2022/11/16 11:37:53;;;;;;;3.05;1.60;;;;;;;-3.28;43.67;96453.44;6177246;28;20611;-67
2022/11/16 11:41:04;;;;;;;4.43;1.40;;;;;;;-3.57;44.53;96453.06;6174417;28;20055;-64
2022/11/16 11:44:14;;;;;;;1.58;1.48;;;;;;;-3.72;44.62;96460.16;6166653;28;20047;-64
2022/11/16 11:47:39;;;;;;;4.85;1.30;;;;;;;-3.80;45.55;96477.41;6193568;28;20545;-68
2022/11/16 11:50:52;;;;;;;3.28;1.55;;;;;;;-3.91;45.05;96485.28;6188842;28;20070;-72
2022/11/16 11:54:01;;;;;;;1.73;1.52;;;;;;;-3.91;45.58;96494.72;6182007;28;21101;-69
2022/11/16 11:57:27;;;;;;;1.90;1.20;;;;;;;-4.10;45.45;96486.44;6181887;28;20050;-68
2022/11/16 12:00:50;;;;;;;2.17;1.42;;;;;;;-4.50;45.36;96456.13;6177740;28;21769;-69
2022/11/16 12:04:03;;;;;;;1.45;1.23;;;;;;;-4.40;45.46;96505.66;6177061;28;20463;-64
2022/11/16 12:07:25;;;;;;;2.80;1.65;;;;;;;-4.54;45.41;96509.22;6178349;28;20065;-63
2022/11/16 12:10:54;;;;;;;2.65;2.15;;;;;;;-4.76;45.79;96507.75;6181291;28;20050;-63
2022/11/16 12:13:58;;;;;;;4.53;2.40;;;;;;;-4.89;45.93;96521.59;6180424;28;20133;-63
2022/11/16 12:16:59;;;;;;;;;;;;;;;-5.08;45.68;96519.19;6181993;28;20058;-65
2022/11/16 12:20:38;;;;;;;1.50;1.40;;;;;;;-5.10;45.84;96531.16;6178455;28;20319;-63
2022/11/16 12:23:57;;;;;;;3.60;1.35;;;;;;;-5.30;46.36;96525.38;6178746;28;20428;-63
2022/11/16 12:27:32;;;;;;;2.05;1.73;;;;;;;-5.41;46.82;96520.31;6184224;28;20046;-63
2022/11/16 12:30:48;;;;;;;2.22;1.90;;;;;;;-5.58;47.55;96525.56;6174236;28;20057;-63
2022/11/16 12:34:08;;;;;;;3.33;1.60;;;;;;;-5.61;47.31;96525.59;6176598;28;20413;-66
2022/11/16 12:37:41;;;;;;;2.15;1.63;;;;;;;-5.60;47.33;96537.56;6177644;28;22230;-61
2022/11/16 12:41:10;;;;;;;2.75;1.70;;;;;;;-5.62;47.28;96534.16;6178613;28;20042;-62
2022/11/16 12:44:24;;;;;;;1.77;1.67;;;;;;;-5.56;47.63;96540.97;6184879;28;20116;-62
2022/11/16 12:47:51;;;;;;;1.83;1.63;;;;;;;-5.60;47.34;96544.38;6192384;28;20054;-62
2022/11/16 12:51:20;;;;;;;3.03;2.20;;;;;;;-5.66;47.76;96542.75;6193314;28;20166;-62
2022/11/16 12:54:40;;;;;;;3.83;2.30;;;;;;;-5.59;47.44;96549.53;6198615;28;20054;-63
2022/11/16 12:57:51;;;;;;;4.38;2.00;;;;;;;-5.57;47.92;96552.09;6199006;28;20046;-62
2022/11/16 13:00:58;;;;;;;3.33;2.30;;;;;;;-5.67;47.65;96556.41;6189077;28;20043;-62
2022/11/16 13:04:11;;;;;;;2.10;1.80;;;;;;;-5.73;47.67;96551.31;6179438;28;20055;-63
2022/11/16 13:07:28;;;;;;;3.00;1.75;;;;;;;-5.69;48.30;96555.56;6192904;28;20412;-63
2022/11/16 13:10:34;;;;;;;3.65;1.98;;;;;;;-5.75;48.36;96558.16;6197707;28;20074;-63
2022/11/16 13:13:38;;;;;;;2.50;1.88;;;;;;;-5.75;48.23;96564.13;6196532;28;20629;-62
2022/11/16 13:16:43;;;;;;;1.60;1.50;;;;;;;-5.81;48.69;96560.75;6197990;28;20051;-61
2022/11/16 13:19:52;;;;;;;3.60;2.10;;;;;;;-5.78;48.08;96563.31;6197501;28;20057;-62
2022/11/16 13:23:07;;;;;;;4.60;2.10;;;;;;;-5.81;48.22;96571.00;6175158;28;20513;-62
2022/11/16 13:26:49;;;;;;;4.75;1.67;;;;;;;-5.87;48.50;96574.47;6190151;28;20042;-61
2022/11/16 13:30:23;;;;;;;1.85;1.50;;;;;;;-6.00;48.77;96576.28;6197322;28;20046;-63
2022/11/16 13:33:47;;;;;;;1.65;1.55;;;;;;;-5.95;49.06;96591.59;6198843;28;20054;-61
2022/11/16 13:36:51;;;;;;;3.10;2.40;;;;;;;-5.95;48.95;96597.59;6184998;28;20141;-60
2022/11/16 13:39:58;;;;;;;2.95;1.98;;;;;;;-5.98;49.40;96595.03;6185369;28;20573;-63
2022/11/16 13:43:12;;;;;;;2.97;1.70;;;;;;;-5.98;49.00;96597.59;6180324;28;20694;-62
2022/11/16 13:46:15;;;;;;;3.78;1.50;;;;;;;-6.10;49.34;96602.78;6182822;28;20624;-62
2022/11/16 13:49:27;;;;;;;3.00;1.85;;;;;;;-6.03;49.48;96608.72;6183573;28;20054;-62
2022/11/16 13:52:46;;;;;;;4.28;2.67;;;;;;;-6.09;49.55;96604.47;6186490;28;20227;-61
2022/11/16 13:55:55;;;;;;;4.53;1.98;;;;;;;-6.10;49.76;96613.03;6160100;28;20041;-62
2022/11/16 13:58:57;;;;;;;2.22;1.70;;;;;;;-6.10;50.10;96613.88;6179143;28;20050;-63
2022/11/16 14:02:27;;;;;;;2.95;1.38;;;;;;;-6.18;50.13;96614.75;6180651;28;20418;-62
2022/11/16 14:05:39;;;;;;;2.17;1.40;;;;;;;-6.27;49.68;96619.91;6180270;28;20046;-63
2022/11/16 14:08:44;;;;;;;2.63;1.45;;;;;;;-6.30;49.82;96625.06;6178450;28;20518;-64
2022/11/16 14:11:46;;;;;;;2.10;1.45;;;;;;;-6.24;50.29;96630.16;6177156;28;20046;-65
2022/11/16 14:15:14;;;;;;;1.52;1.23;;;;;;;-6.21;50.04;96625.88;6185150;28;20049;-64
2022/11/16 14:18:15;;;;;;;3.20;2.30;;;;;;;-6.34;50.37;96625.06;6185151;28;20046;-65
2022/11/16 14:21:19;;;;;;;4.95;1.80;;;;;;;-6.42;50.84;96629.34;6183124;28;20046;-64
2022/11/16 14:24:37;;;;;;;;;;;;;;;-6.35;49.97;96636.16;6180944;28;21841;-64
2022/11/16 14:27:52;;;;;;;2.95;1.70;;;;;;;-6.37;50.09;96634.44;6195683;28;19921;-66
2022/11/16 14:30:59;;;;;;;2.90;1.90;;;;;;;-6.45;50.17;96631.91;6180403;28;20053;-65
2022/11/16 14:34:00;;;;;;;3.22;1.30;;;;;;;-6.42;50.21;96642.16;6187066;28;20054;-65
2022/11/16 14:37:28;;;;;;;1.98;1.35;;;;;;;-6.48;50.91;96641.28;6198379;28;20928;-65
2022/11/16 14:40:40;;;;;;;2.72;1.77;;;;;;;-6.46;50.54;96645.56;6185178;28;20046;-65
2022/11/16 14:43:50;;;;;;;5.47;1.40;;;;;;;-6.49;50.49;96645.56;6180533;28;20427;-64
2022/11/16 14:46:58;;;;;;;1.65;1.52;;;;;;;-6.58;50.85;96655.81;6148475;28;20732;-64
2022/11/16 14:49:59;;;;;;;1.42;1.30;;;;;;;-6.49;50.52;96660.91;6169811;28;20046;-64
2022/11/16 14:53:06;;;;;;;1.30;1.20;;;;;;;-6.58;50.83;96660.94;6160358;28;20675;-65
2022/11/16 14:56:15;;;;;;;1.33;1.17;;;;;;;-6.57;50.86;96667.75;6160395;28;20058;-70
2022/11/16 14:59:20;;;;;;;1.48;1.15;;;;;;;-6.57;51.32;96684.00;6167214;28;20088;-64
2022/11/16 15:02:26;;;;;;;2.83;1.10;;;;;;;-6.58;50.89;96681.41;6172445;28;20528;-64
2022/11/16 15:05:34;;;;;;;1.25;1.15;;;;;;;-6.61;50.80;96687.38;6164843;28;20038;-62
2022/11/16 15:08:49;;;;;;;1.27;1.08;;;;;;;-6.60;50.87;96683.13;6169705;28;20820;-63
2022/11/16 15:15:23;;;;;;;1.48;1.05;;;;;;;-6.65;50.74;96698.50;6181013;28;20046;-62
2022/11/16 15:18:27;;;;;;;2.67;1.35;;;;;;;-6.68;50.35;96701.06;6175831;28;20172;-63
2022/11/16 15:21:29;;;;;;;1.67;1.17;;;;;;;-6.77;50.54;96699.31;6184460;28;20129;-64
2022/11/16 15:24:33;;;;;;;1.40;1.17;;;;;;;-6.74;50.88;96700.19;6177273;28;20969;-65
2022/11/16 15:27:39;;;;;;;1.42;1.33;;;;;;;-6.80;50.76;96712.13;6167299;28;20042;-65